Time;durP1;ratioP1;P1;durP2;ratioP2;P2;SDS_P1;SDS_P2;PMS_P1;PMS_P2;Temp;Humidity;BMP_temperature;BMP_pressure;BME280_temperature;BME280_humidity;BME280_pressure;Samples;Min_cycle;Max_cycle;Signal;HPM_P1;HPM_P2
2023/08/08 00:00:52;;;;;;;5.20;3.73;;;;;;;13.81;98.38;98296.38;4142411;28;20640;-81
2023/08/08 00:02:55;;;;;;;3.50;2.97;;;;;;;13.81;98.13;98299.00;4138177;28;20672;-81
2023/08/08 00:04:58;;;;;;;3.77;3.07;;;;;;;13.80;98.69;98296.50;4138843;28;20671;-80
2023/08/08 00:07:01;;;;;;;3.37;2.83;;;;;;;13.77;98.72;98300.22;4156206;28;20652;-80
2023/08/08 00:09:06;;;;;;;3.33;2.87;;;;;;;13.79;98.59;98297.50;4128626;28;20667;-80
2023/08/08 00:11:09;;;;;;;4.20;2.83;;;;;;;13.76;98.68;98295.91;4154327;28;20643;-80
2023/08/08 00:13:11;;;;;;;4.80;3.97;;;;;;;13.78;98.78;98301.06;4158308;28;20620;-81
2023/08/08 00:15:14;;;;;;;5.43;4.00;;;;;;;13.78;98.91;98295.81;4123985;28;20626;-80
2023/08/08 00:17:17;;;;;;;3.80;2.90;;;;;;;13.79;98.95;98302.72;4120949;28;20642;-80
2023/08/08 00:19:21;;;;;;;4.37;3.33;;;;;;;13.79;99.43;98302.72;4128458;28;20665;-80
2023/08/08 00:21:24;;;;;;;3.77;3.07;;;;;;;13.73;98.97;98300.59;4156765;28;20689;-79
2023/08/08 00:23:27;;;;;;;6.33;3.20;;;;;;;13.71;98.73;98295.47;4155999;28;20659;-72
2023/08/08 00:25:31;;;;;;;3.80;3.10;;;;;;;13.71;99.10;98305.94;4125739;28;20806;-73
2023/08/08 00:27:35;;;;;;;4.20;3.10;;;;;;;13.69;99.07;98299.97;4157206;28;20639;-73
2023/08/08 00:29:38;;;;;;;4.53;3.10;;;;;;;13.68;99.41;98303.56;4157183;28;21257;-73
2023/08/08 00:31:40;;;;;;;4.23;3.27;;;;;;;13.68;99.65;98300.06;4136040;28;20651;-72
2023/08/08 00:33:43;;;;;;;4.40;3.17;;;;;;;13.69;99.53;98297.34;4136267;28;20649;-72
2023/08/08 00:35:46;;;;;;;5.10;2.97;;;;;;;13.68;99.94;98298.31;4127363;28;20624;-73
2023/08/08 00:37:49;;;;;;;4.40;3.30;;;;;;;13.67;100.00;98293.19;4137851;28;20625;-72
2023/08/08 00:39:54;;;;;;;4.33;3.00;;;;;;;13.64;99.84;98293.44;4144562;28;20691;-72
2023/08/08 00:41:58;;;;;;;7.37;3.50;;;;;;;13.62;99.93;98284.84;4128675;28;20643;-73
2023/08/08 00:44:02;;;;;;;4.83;3.60;;;;;;;13.63;100.00;98290.94;4123010;28;20644;-72
2023/08/08 00:46:05;;;;;;;4.13;2.87;;;;;;;13.62;100.00;98286.63;4123984;28;20660;-74
2023/08/08 00:48:08;;;;;;;4.03;3.20;;;;;;;13.62;100.00;98284.00;4152948;28;21072;-73
2023/08/08 00:50:12;;;;;;;4.73;3.53;;;;;;;13.63;100.00;98286.50;4155473;28;21028;-72
2023/08/08 00:52:15;;;;;;;7.63;3.10;;;;;;;13.64;99.72;98279.50;4138481;28;20632;-71
2023/08/08 00:54:19;;;;;;;5.50;3.20;;;;;;;13.65;99.97;98289.84;4153906;28;20735;-73
2023/08/08 00:56:22;;;;;;;6.50;3.50;;;;;;;13.66;100.00;98281.84;4123914;28;20711;-73
2023/08/08 00:58:27;;;;;;;4.27;3.40;;;;;;;13.65;100.00;98280.19;4131111;28;20617;-72
2023/08/08 01:00:30;;;;;;;5.10;3.57;;;;;;;13.66;100.00;98287.09;4141989;28;20620;-72
2023/08/08 01:02:33;;;;;;;4.00;3.40;;;;;;;13.66;100.00;98284.47;4122526;28;20638;-73
2023/08/08 01:04:36;;;;;;;3.63;2.93;;;;;;;13.66;100.00;98292.34;4131199;28;21621;-72
2023/08/08 01:06:44;;;;;;;5.27;3.60;;;;;;;13.65;100.00;98288.06;4127681;28;21021;-73
2023/08/08 01:08:52;;;;;;;6.23;2.77;;;;;;;13.65;99.59;98293.31;4121088;28;20660;-73
2023/08/08 01:10:55;;;;;;;4.60;3.53;;;;;;;13.64;100.00;98293.44;4136205;28;20624;-73
2023/08/08 01:13:01;;;;;;;5.17;3.47;;;;;;;13.64;99.96;98294.25;4144326;28;20624;-72
2023/08/08 01:15:08;;;;;;;4.10;3.03;;;;;;;13.64;100.00;98288.19;4153361;28;20626;-72
2023/08/08 01:17:12;;;;;;;4.70;3.10;;;;;;;13.62;100.00;98284.84;4138655;28;20632;-73
2023/08/08 01:19:23;;;;;;;4.20;3.20;;;;;;;13.61;100.00;98282.34;4142498;28;20759;-72
2023/08/08 01:21:28;;;;;;;5.33;3.37;;;;;;;13.61;100.00;98271.88;4153628;28;21074;-73
2023/08/08 01:23:36;;;;;;;4.57;3.70;;;;;;;13.60;100.00;98275.44;4155783;28;21027;-72
2023/08/08 01:25:42;;;;;;;7.03;3.67;;;;;;;13.60;100.00;98275.44;4137348;28;21281;-73
2023/08/08 01:27:45;;;;;;;5.33;3.60;;;;;;;13.60;100.00;98281.50;4129574;28;20633;-72
2023/08/08 01:29:48;;;;;;;4.33;3.30;;;;;;;13.60;100.00;98278.06;4146977;28;21063;-73
2023/08/08 01:31:51;;;;;;;4.30;3.47;;;;;;;13.60;100.00;98271.00;4138282;28;20633;-73
2023/08/08 01:33:54;;;;;;;4.93;3.23;;;;;;;13.60;100.00;98273.63;4154812;28;20640;-72
2023/08/08 01:36:03;;;;;;;3.97;3.10;;;;;;;13.59;100.00;98272.00;4128349;28;20651;-74
2023/08/08 01:38:12;;;;;;;4.17;3.30;;;;;;;13.59;100.00;98273.75;4140291;28;20717;-73
2023/08/08 01:40:17;;;;;;;4.60;3.07;;;;;;;13.59;100.00;98276.38;4152390;28;20668;-72
2023/08/08 01:42:24;;;;;;;6.13;3.60;;;;;;;13.58;100.00;98275.56;4156741;28;20721;-72
2023/08/08 01:44:28;;;;;;;6.33;3.13;;;;;;;13.58;100.00;98278.16;4143931;28;20634;-72
2023/08/08 01:46:31;;;;;;;4.63;3.27;;;;;;;13.60;100.00;98267.56;4157543;28;20635;-73
2023/08/08 01:48:35;;;;;;;4.73;3.10;;;;;;;13.62;100.00;98269.13;4121580;28;20714;-74
2023/08/08 01:50:38;;;;;;;4.90;3.27;;;;;;;13.57;100.00;98267.81;4155750;28;20620;-72
2023/08/08 01:52:41;;;;;;;5.70;3.33;;;;;;;13.59;100.00;98268.50;4139929;28;20737;-72
2023/08/08 01:54:44;;;;;;;3.93;3.13;;;;;;;13.58;100.00;98267.69;4143272;28;20638;-72
2023/08/08 01:56:48;;;;;;;4.00;3.27;;;;;;;13.59;100.00;98268.50;4147830;28;20624;-72
2023/08/08 01:58:51;;;;;;;4.00;2.87;;;;;;;13.61;100.00;98267.44;4136517;28;20744;-74
2023/08/08 02:00:55;;;;;;;4.20;3.37;;;;;;;13.62;100.00;98258.66;4151738;28;20624;-72
2023/08/08 02:02:58;;;;;;;3.53;2.90;;;;;;;13.62;100.00;98258.66;4146227;28;21020;-73
2023/08/08 02:05:01;;;;;;;4.53;3.10;;;;;;;13.62;100.00;98257.78;4129922;28;21277;-73
2023/08/08 02:07:05;;;;;;;5.20;3.17;;;;;;;13.64;100.00;98266.41;4145096;28;20968;-72
2023/08/08 02:09:08;;;;;;;5.07;4.13;;;;;;;13.67;100.00;98256.50;4143470;28;21224;-73
2023/08/08 02:11:11;;;;;;;5.87;3.30;;;;;;;13.66;100.00;98265.31;4141494;28;20732;-72
2023/08/08 02:13:14;;;;;;;3.87;3.00;;;;;;;13.67;100.00;98265.19;4156407;28;20995;-72
2023/08/08 02:15:18;;;;;;;7.70;3.90;;;;;;;13.69;100.00;98260.63;4140156;28;20740;-72
2023/08/08 02:17:22;;;;;;;5.97;3.60;;;;;;;13.71;100.00;98260.53;4142274;28;21272;-72
2023/08/08 02:19:26;;;;;;;6.53;3.77;;;;;;;13.73;100.00;98261.25;4153618;28;20691;-72
2023/08/08 02:21:29;;;;;;;5.17;3.80;;;;;;;13.73;100.00;98264.72;4159392;28;20651;-72
2023/08/08 02:23:31;;;;;;;4.57;2.90;;;;;;;13.74;100.00;98261.13;4116472;28;21208;-73
2023/08/08 02:25:34;;;;;;;5.37;3.33;;;;;;;13.74;100.00;98260.28;4139404;28;20710;-74
2023/08/08 02:27:37;;;;;;;3.83;3.03;;;;;;;13.73;100.00;98251.59;4137709;28;20639;-72
2023/08/08 02:29:40;;;;;;;4.77;2.83;;;;;;;13.74;100.00;98255.91;4152535;28;20644;-73
2023/08/08 02:31:44;;;;;;;3.20;2.80;;;;;;;13.74;100.00;98263.75;4141338;28;20631;-73
2023/08/08 02:33:49;;;;;;;4.20;3.20;;;;;;;13.75;100.00;98272.44;4142471;28;20651;-73
2023/08/08 02:35:52;;;;;;;3.40;2.63;;;;;;;13.76;100.00;98268.88;4146789;28;20662;-71
2023/08/08 02:37:55;;;;;;;4.40;3.23;;;;;;;13.74;100.00;98266.38;4119966;28;20636;-74
2023/08/08 02:39:58;;;;;;;4.00;2.90;;;;;;;13.73;100.00;98267.31;4154675;28;20670;-72
2023/08/08 02:42:01;;;;;;;4.00;3.20;;;;;;;13.76;100.00;98272.34;4138748;28;20632;-74
2023/08/08 02:44:04;;;;;;;5.07;2.87;;;;;;;13.77;100.00;98270.53;4139681;28;20641;-80
2023/08/08 02:46:07;;;;;;;3.70;2.70;;;;;;;13.78;100.00;98266.97;4156980;28;20641;-80
2023/08/08 02:48:11;;;;;;;4.77;3.20;;;;;;;13.78;100.00;98256.47;4122391;28;20667;-80
2023/08/08 02:50:14;;;;;;;3.50;2.70;;;;;;;13.76;100.00;98259.22;4130779;28;20624;-81
2023/08/08 02:52:17;;;;;;;3.67;3.07;;;;;;;13.75;100.00;98248.84;4136748;28;21221;-77
2023/08/08 02:54:21;;;;;;;3.97;2.67;;;;;;;13.74;100.00;98253.28;4143525;28;20746;-81
2023/08/08 02:56:24;;;;;;;3.90;2.90;;;;;;;13.74;100.00;98255.03;4139667;28;20676;-81
2023/08/08 02:58:28;;;;;;;6.67;3.33;;;;;;;13.73;100.00;98251.59;4143774;28;20710;-81
2023/08/08 03:00:34;;;;;;;4.87;3.10;;;;;;;13.72;100.00;98252.53;4139161;28;21015;-80
2023/08/08 03:02:37;;;;;;;6.70;2.73;;;;;;;13.71;100.00;98258.75;4144852;28;20624;-80
2023/08/08 03:04:42;;;;;;;5.77;2.83;;;;;;;13.72;100.00;98259.59;4093177;28;1143801;-81
2023/08/08 03:06:45;;;;;;;3.43;2.80;;;;;;;13.70;100.00;98262.31;4145612;28;20658;-79
2023/08/08 03:08:48;;;;;;;3.50;2.77;;;;;;;13.69;100.00;98255.41;4135105;28;20748;-81
2023/08/08 03:10:52;;;;;;;3.47;2.67;;;;;;;13.65;100.00;98259.22;4144959;28;20640;-79
2023/08/08 03:12:55;;;;;;;4.00;2.80;;;;;;;13.64;100.00;98258.53;4140348;28;21010;-79
2023/08/08 03:14:59;;;;;;;5.73;3.20;;;;;;;13.63;100.00;98259.47;4140173;28;21036;-82
2023/08/08 03:17:02;;;;;;;4.60;3.00;;;;;;;13.58;100.00;98259.81;4144720;28;20722;-81
2023/08/08 03:19:05;;;;;;;3.93;3.17;;;;;;;13.57;100.00;98257.31;4132845;28;20615;-80
2023/08/08 03:21:10;;;;;;;4.17;2.93;;;;;;;13.55;100.00;98261.88;4137588;28;20661;-81
2023/08/08 03:23:13;;;;;;;5.13;3.23;;;;;;;13.51;100.00;98255.19;4138575;28;20611;-81
2023/08/08 03:25:17;;;;;;;4.43;2.97;;;;;;;13.47;100.00;98249.34;4137340;28;20617;-81
2023/08/08 03:27:20;;;;;;;5.30;4.00;;;;;;;13.44;100.00;98244.34;4119451;28;21313;-81
2023/08/08 03:29:26;;;;;;;8.70;3.47;;;;;;;13.43;100.00;98247.91;4128117;28;20641;-81
2023/08/08 03:31:32;;;;;;;8.00;4.27;;;;;;;13.40;100.00;98248.16;4142073;28;21080;-80
2023/08/08 03:33:39;;;;;;;5.47;4.23;;;;;;;13.38;100.00;98249.19;4145441;28;20635;-80
2023/08/08 03:35:45;;;;;;;4.00;3.23;;;;;;;13.34;100.00;98242.56;4137923;28;20665;-81
2023/08/08 03:37:49;;;;;;;5.00;3.77;;;;;;;13.31;99.99;98237.53;4117832;28;20669;-80
2023/08/08 03:39:52;;;;;;;5.70;4.10;;;;;;;13.29;100.00;98244.66;4139009;28;20617;-81
2023/08/08 03:41:56;;;;;;;4.90;3.63;;;;;;;13.28;100.00;98253.50;4129398;28;20628;-81
2023/08/08 03:43:59;;;;;;;4.50;3.73;;;;;;;13.25;99.77;98251.94;4144991;28;20609;-80
2023/08/08 03:46:03;;;;;;;4.97;3.50;;;;;;;13.24;100.00;98252.06;4144192;28;20680;-78
2023/08/08 03:48:06;;;;;;;4.47;3.70;;;;;;;13.23;100.00;98255.66;4133104;28;20629;-80
2023/08/08 03:50:10;;;;;;;4.47;3.73;;;;;;;13.23;100.00;98250.41;4130176;28;20662;-80
2023/08/08 03:52:14;;;;;;;5.70;4.30;;;;;;;13.23;100.00;98250.41;4129584;28;20633;-81
2023/08/08 03:54:19;;;;;;;4.53;3.50;;;;;;;13.22;100.00;98251.34;4162153;28;20996;-80
2023/08/08 03:56:22;;;;;;;4.50;3.77;;;;;;;13.23;100.00;98246.00;4141565;28;20714;-81
2023/08/08 03:58:25;;;;;;;6.83;3.87;;;;;;;13.22;100.00;98246.94;4145351;28;20647;-79
2023/08/08 04:00:27;;;;;;;6.57;3.80;;;;;;;13.24;100.00;98250.28;4148051;28;20755;-80
2023/08/08 04:02:30;;;;;;;5.70;3.40;;;;;;;13.23;100.00;98251.22;4158418;28;21189;-81
2023/08/08 04:04:34;;;;;;;4.70;3.90;;;;;;;13.26;100.00;98260.63;4134504;28;20655;-80
2023/08/08 04:06:37;;;;;;;8.03;4.90;;;;;;;13.28;100.00;98254.31;4141925;28;20634;-80
2023/08/08 04:08:40;;;;;;;5.87;4.03;;;;;;;13.29;100.00;98256.00;4140914;28;20642;-80
2023/08/08 04:10:47;;;;;;;5.60;4.00;;;;;;;13.30;100.00;98252.41;4157929;28;20612;-80
2023/08/08 04:12:51;;;;;;;6.40;4.43;;;;;;;13.29;100.00;98253.38;4136548;28;20632;-81
2023/08/08 04:14:54;;;;;;;5.73;3.90;;;;;;;13.30;100.00;98254.19;4140839;28;20714;-80
2023/08/08 04:16:56;;;;;;;4.90;3.67;;;;;;;13.32;100.00;98260.16;4151792;28;20628;-81
2023/08/08 04:19:03;;;;;;;4.10;3.37;;;;;;;13.32;100.00;98268.88;4128407;28;20627;-81
2023/08/08 04:21:06;;;;;;;7.00;4.17;;;;;;;13.34;100.00;98260.88;4157782;28;20645;-79
2023/08/08 04:23:09;;;;;;;4.97;4.03;;;;;;;13.34;100.00;98264.34;4157539;28;20646;-80
2023/08/08 04:25:12;;;;;;;4.63;3.80;;;;;;;13.38;100.00;98264.91;4141168;28;20634;-80
2023/08/08 04:27:16;;;;;;;6.17;4.00;;;;;;;13.39;100.00;98263.97;4156237;28;20630;-81
2023/08/08 04:29:19;;;;;;;6.20;4.73;;;;;;;13.38;100.00;98268.41;4135999;28;20627;-80
2023/08/08 04:31:24;;;;;;;5.67;4.37;;;;;;;13.41;100.00;98267.31;4140981;28;20659;-81
2023/08/08 04:33:28;;;;;;;5.53;4.60;;;;;;;13.41;100.00;98269.94;4144406;28;20717;-81
2023/08/08 04:35:31;;;;;;;6.37;4.70;;;;;;;13.43;100.00;98268.03;4157816;28;20733;-81
2023/08/08 04:37:34;;;;;;;4.40;3.50;;;;;;;13.45;100.00;98268.75;4142581;28;21287;-81
2023/08/08 04:39:37;;;;;;;6.77;4.17;;;;;;;13.45;100.00;98264.34;4159114;28;20990;-81
2023/08/08 04:41:40;;;;;;;6.37;4.20;;;;;;;13.46;100.00;98271.25;4127670;28;21239;-80
2023/08/08 04:43:44;;;;;;;8.73;4.50;;;;;;;13.46;100.00;98265.19;4140758;28;20638;-81
2023/08/08 04:45:47;;;;;;;4.33;3.90;;;;;;;13.48;100.00;98271.13;4143256;28;20737;-81
2023/08/08 04:47:49;;;;;;;6.63;4.87;;;;;;;13.50;100.00;98266.59;4156156;28;20618;-79
2023/08/08 04:49:53;;;;;;;5.20;4.00;;;;;;;13.53;100.00;98268.97;4156089;28;20631;-79
2023/08/08 04:51:56;;;;;;;6.73;3.60;;;;;;;13.53;100.00;98263.75;4154799;28;20639;-80
2023/08/08 04:53:59;;;;;;;4.80;3.90;;;;;;;13.57;100.00;98273.88;4149480;28;20650;-80
2023/08/08 04:56:04;;;;;;;5.93;3.83;;;;;;;13.58;100.00;98275.56;4154306;28;20755;-80
2023/08/08 04:58:07;;;;;;;7.17;4.20;;;;;;;13.61;100.00;98277.13;4149266;28;20666;-80
2023/08/08 05:00:15;;;;;;;8.93;4.50;;;;;;;13.65;100.00;98279.34;4151558;28;20623;-81
2023/08/08 05:02:18;;;;;;;7.10;4.43;;;;;;;13.69;100.00;98279.00;4138212;28;20651;-82
2023/08/08 05:04:21;;;;;;;5.00;4.40;;;;;;;13.72;100.00;98277.94;4156962;28;21238;-74
2023/08/08 05:06:24;;;;;;;5.00;4.10;;;;;;;13.76;100.00;98277.56;4137784;28;20759;-72
2023/08/08 05:08:27;;;;;;;6.30;4.10;;;;;;;13.73;100.00;98269.94;4140170;28;20726;-73
2023/08/08 05:10:31;;;;;;;5.00;4.00;;;;;;;13.73;100.00;98271.75;4134790;28;20641;-72
2023/08/08 05:12:34;;;;;;;6.93;4.57;;;;;;;13.71;100.00;98269.25;4153832;28;20636;-73
2023/08/08 05:14:37;;;;;;;6.70;4.30;;;;;;;13.72;100.00;98264.81;4135043;28;20676;-72
2023/08/08 05:16:41;;;;;;;6.20;4.40;;;;;;;13.69;100.00;98265.88;4136216;28;20966;-72
2023/08/08 05:18:45;;;;;;;4.50;3.60;;;;;;;13.69;100.00;98259.81;4144337;28;20635;-72
2023/08/08 05:20:48;;;;;;;4.97;3.63;;;;;;;13.71;100.00;98269.25;4156460;28;20654;-72
2023/08/08 05:22:51;;;;;;;7.83;4.67;;;;;;;13.72;100.00;98264.81;4138330;28;20655;-72
2023/08/08 05:24:54;;;;;;;5.43;4.10;;;;;;;13.74;100.00;98271.63;4138455;28;21610;-73
2023/08/08 05:26:57;;;;;;;6.53;5.80;;;;;;;13.81;100.00;98274.59;4151269;28;20639;-73
2023/08/08 05:29:00;;;;;;;5.07;3.70;;;;;;;13.87;100.00;98267.06;4140543;28;20631;-72
2023/08/08 05:31:03;;;;;;;6.43;4.00;;;;;;;13.98;100.00;98272.34;4142331;28;20642;-74
2023/08/08 05:33:08;;;;;;;5.03;3.90;;;;;;;14.13;100.00;98275.53;4155489;28;20688;-73
2023/08/08 05:35:11;;;;;;;4.90;4.00;;;;;;;14.31;100.00;98278.38;4138008;28;20636;-73
2023/08/08 05:37:14;;;;;;;6.20;4.10;;;;;;;14.56;100.00;98283.31;4154907;28;20639;-73
2023/08/08 05:39:19;;;;;;;6.70;3.80;;;;;;;14.75;100.00;98278.25;4151888;28;21201;-72
2023/08/08 05:41:23;;;;;;;5.20;3.93;;;;;;;14.95;99.30;98288.75;4150796;28;20646;-73
2023/08/08 05:43:27;;;;;;;5.23;4.07;;;;;;;15.15;99.17;98287.94;4155630;28;21046;-72
2023/08/08 05:45:32;;;;;;;5.70;3.87;;;;;;;15.47;100.00;98301.88;4150081;28;21010;-75
2023/08/08 05:47:34;;;;;;;4.90;3.80;;;;;;;15.74;96.96;98295.94;4153662;28;20626;-74
2023/08/08 05:49:41;;;;;;;5.77;4.53;;;;;;;15.82;95.20;98296.09;4155116;28;20679;-73
2023/08/08 05:51:44;;;;;;;5.63;3.63;;;;;;;15.75;97.07;98292.31;4130528;28;20604;-72
2023/08/08 05:53:48;;;;;;;4.70;3.60;;;;;;;15.70;95.41;98293.72;4143640;28;21088;-72
2023/08/08 05:55:50;;;;;;;5.23;3.47;;;;;;;15.66;96.18;98293.13;4143140;28;20660;-74
2023/08/08 05:57:54;;;;;;;5.60;3.63;;;;;;;15.72;95.92;98295.22;4134718;28;20622;-73
2023/08/08 05:59:58;;;;;;;4.47;3.73;;;;;;;15.98;95.87;98304.31;4137925;28;21221;-74
2023/08/08 06:02:14;;;;;;;4.30;3.30;;;;;;;16.08;94.74;98294.69;4143659;28;20661;-72
2023/08/08 06:04:17;;;;;;;4.60;2.97;;;;;;;16.07;94.59;98299.13;4158229;28;20659;-74
2023/08/08 06:06:22;;;;;;;3.13;2.70;;;;;;;16.07;95.19;98298.28;4154494;28;20710;-72
2023/08/08 06:08:25;;;;;;;4.70;3.20;;;;;;;16.08;95.50;98295.50;4138614;28;20639;-72
2023/08/08 06:10:28;;;;;;;4.37;3.43;;;;;;;16.05;96.19;98292.31;4142686;28;20727;-73
2023/08/08 06:12:32;;;;;;;7.13;3.33;;;;;;;16.01;94.61;98292.72;4153892;28;20641;-74
2023/08/08 06:14:35;;;;;;;4.37;3.30;;;;;;;16.31;96.90;98298.81;4155447;28;20659;-80
2023/08/08 06:16:39;;;;;;;4.33;3.00;;;;;;;16.77;94.18;98298.03;4154345;28;20625;-77
2023/08/08 06:18:42;;;;;;;5.17;3.20;;;;;;;17.15;93.80;98300.69;4157813;28;20628;-81
2023/08/08 06:20:45;;;;;;;5.30;3.30;;;;;;;17.46;93.69;98300.41;4142038;28;20640;-81
2023/08/08 06:22:50;;;;;;;10.40;4.30;;;;;;;17.82;92.52;98302.25;4146692;28;21263;-81
2023/08/08 06:24:53;;;;;;;4.77;3.27;;;;;;;18.13;91.48;98294.81;4150301;28;21323;-81
2023/08/08 06:26:56;;;;;;;4.70;2.87;;;;;;;18.41;88.84;98293.00;4139022;28;20648;-81
2023/08/08 06:29:00;;;;;;;5.73;3.40;;;;;;;18.62;88.63;98289.09;4137992;28;20675;-82
2023/08/08 06:31:03;;;;;;;4.83;3.83;;;;;;;18.95;88.31;98297.19;4152925;28;20638;-81
2023/08/08 06:33:06;;;;;;;3.70;3.00;;;;;;;19.25;85.05;98299.47;4138184;28;21005;-80
2023/08/08 06:35:10;;;;;;;4.87;2.70;;;;;;;19.52;83.85;98293.06;4141574;28;20631;-81
2023/08/08 06:37:15;;;;;;;3.83;2.50;;;;;;;19.80;82.78;98296.38;4155444;28;21066;-81
2023/08/08 06:39:21;;;;;;;3.27;2.40;;;;;;;20.04;82.41;98300.03;4140077;28;20669;-80
2023/08/08 06:41:24;;;;;;;3.30;2.63;;;;;;;20.31;81.69;98298.00;4140178;28;20631;-81
2023/08/08 06:43:27;;;;;;;5.20;2.70;;;;;;;20.28;79.76;98297.50;4144379;28;20699;-81
2023/08/08 06:45:30;;;;;;;4.40;2.50;;;;;;;20.23;78.79;98289.22;4159950;28;21273;-81
2023/08/08 06:47:33;;;;;;;5.33;2.80;;;;;;;20.31;79.09;98291.88;4142967;28;20629;-81
2023/08/08 06:49:37;;;;;;;3.40;2.77;;;;;;;20.35;78.94;98288.75;4159136;28;21415;-78
2023/08/08 06:51:40;;;;;;;2.70;2.10;;;;;;;20.36;77.75;98283.28;4156847;28;20693;-81
2023/08/08 06:53:43;;;;;;;4.67;2.37;;;;;;;20.60;78.65;98287.84;4155301;28;20636;-79
2023/08/08 06:55:47;;;;;;;3.67;2.50;;;;;;;20.83;79.02;98290.56;4125742;28;20625;-81
2023/08/08 06:57:51;;;;;;;3.77;2.03;;;;;;;21.04;79.51;98288.28;4155724;28;20625;-81
2023/08/08 06:59:54;;;;;;;2.57;2.00;;;;;;;21.20;77.36;98295.41;4158646;28;20724;-81
2023/08/08 07:01:57;;;;;;;2.93;1.90;;;;;;;21.29;76.96;98296.09;4155366;28;20624;-81
2023/08/08 07:04:00;;;;;;;4.07;1.97;;;;;;;21.33;75.43;98288.63;4152645;28;20678;-81
2023/08/08 07:06:04;;;;;;;2.73;1.60;;;;;;;21.38;75.54;98292.47;4136970;28;21123;-80
2023/08/08 07:08:08;;;;;;;2.90;1.93;;;;;;;21.49;74.63;98292.13;4141722;28;20632;-81
2023/08/08 07:10:12;;;;;;;2.40;1.57;;;;;;;21.69;74.25;98290.78;4156493;28;20720;-80
2023/08/08 07:12:17;;;;;;;3.20;1.70;;;;;;;21.95;74.25;98292.25;4159255;28;21032;-80
2023/08/08 07:14:20;;;;;;;2.50;1.60;;;;;;;22.05;71.98;98289.38;4141281;28;20633;-81
2023/08/08 07:16:23;;;;;;;2.80;2.23;;;;;;;22.31;74.57;98289.00;4143455;28;20630;-82
2023/08/08 07:18:26;;;;;;;2.70;1.70;;;;;;;22.47;71.84;98288.09;4154500;28;20618;-82
2023/08/08 07:20:29;;;;;;;1.93;1.40;;;;;;;22.51;70.33;98279.59;4153655;28;20665;-81
2023/08/08 07:22:33;;;;;;;3.07;1.70;;;;;;;22.56;69.48;98279.88;4137559;28;20618;-81
2023/08/08 07:24:38;;;;;;;2.10;1.43;;;;;;;22.49;71.41;98270.13;4157130;28;20613;-74
2023/08/08 07:26:41;;;;;;;2.40;1.53;;;;;;;22.61;71.58;98277.53;4157898;28;20629;-73
2023/08/08 07:28:45;;;;;;;3.23;1.77;;;;;;;22.70;70.17;98279.13;4138538;28;21084;-73
2023/08/08 07:30:49;;;;;;;2.50;1.67;;;;;;;22.81;70.41;98278.75;4157006;28;21881;-73
2023/08/08 07:32:52;;;;;;;3.33;1.63;;;;;;;22.97;69.76;98282.19;4151847;28;20686;-73
2023/08/08 07:34:55;;;;;;;2.50;1.40;;;;;;;22.92;68.75;98279.16;4156542;28;20638;-73
2023/08/08 07:36:58;;;;;;;2.10;1.43;;;;;;;23.17;71.11;98277.19;4145591;28;20760;-73
2023/08/08 07:39:01;;;;;;;2.93;1.50;;;;;;;23.31;69.72;98275.41;4155330;28;20631;-73
2023/08/08 07:41:04;;;;;;;2.67;1.60;;;;;;;23.42;69.17;98271.50;4156133;28;21490;-73
2023/08/08 07:43:07;;;;;;;2.10;1.37;;;;;;;23.38;67.50;98267.56;4139620;28;21215;-73
2023/08/08 07:45:11;;;;;;;4.07;1.73;;;;;;;23.34;68.66;98264.41;4153624;28;20624;-73
2023/08/08 07:47:14;;;;;;;2.43;1.40;;;;;;;23.27;68.20;98260.81;4143673;28;20624;-74
2023/08/08 07:49:19;;;;;;;1.90;1.20;;;;;;;23.21;67.34;98256.22;4154691;28;20699;-73
2023/08/08 07:51:22;;;;;;;2.33;1.30;;;;;;;22.85;66.77;98250.78;4153551;28;20654;-73
2023/08/08 07:53:25;;;;;;;2.87;1.53;;;;;;;22.80;66.39;98243.31;4155621;28;20644;-74
2023/08/08 07:55:28;;;;;;;2.20;1.20;;;;;;;22.92;66.19;98251.75;4152967;28;21535;-74
2023/08/08 07:57:34;;;;;;;1.60;1.27;;;;;;;23.16;66.32;98247.09;4152732;28;20621;-73
2023/08/08 07:59:37;;;;;;;2.00;1.30;;;;;;;23.32;66.19;98245.13;4150699;28;20620;-73
2023/08/08 08:01:42;;;;;;;2.20;1.40;;;;;;;23.56;65.05;98246.72;4136448;28;20639;-74
2023/08/08 08:03:45;;;;;;;1.90;1.30;;;;;;;23.67;64.07;98255.16;4134484;28;20744;-74
2023/08/08 08:05:48;;;;;;;2.07;1.50;;;;;;;23.76;65.72;98243.41;4136728;28;20649;-73
2023/08/08 08:07:52;;;;;;;1.50;1.00;;;;;;;23.93;64.85;98239.53;4153766;28;20978;-73
2023/08/08 08:09:55;;;;;;;2.00;1.10;;;;;;;24.16;67.28;98241.94;4118595;28;20734;-73
2023/08/08 08:11:58;;;;;;;1.80;1.10;;;;;;;24.32;65.51;98231.06;4135353;28;20953;-73
2023/08/08 08:14:01;;;;;;;2.63;1.67;;;;;;;24.44;63.32;98234.91;4144144;28;20653;-73
2023/08/08 08:16:05;;;;;;;2.30;1.20;;;;;;;24.50;64.92;98239.50;4150445;28;20662;-74
2023/08/08 08:18:11;;;;;;;1.70;1.10;;;;;;;24.61;64.18;98240.88;4125328;28;20631;-74
2023/08/08 08:20:14;;;;;;;2.40;1.60;;;;;;;24.73;65.58;98245.50;4133431;28;20691;-73
2023/08/08 08:22:16;;;;;;;1.83;1.20;;;;;;;24.64;61.92;98242.16;4152147;28;20642;-73
2023/08/08 08:24:20;;;;;;;2.13;1.40;;;;;;;24.39;62.56;98231.19;4134027;28;20766;-73
2023/08/08 08:26:23;;;;;;;1.90;1.10;;;;;;;24.10;63.39;98233.00;4151578;28;20737;-73
2023/08/08 08:28:26;;;;;;;1.93;1.47;;;;;;;24.06;63.58;98234.41;4135787;28;20640;-74
2023/08/08 08:30:29;;;;;;;3.80;1.50;;;;;;;23.91;63.40;98225.56;4151736;28;20631;-73
2023/08/08 08:32:34;;;;;;;1.83;1.40;;;;;;;23.76;63.41;98222.09;4144773;28;20772;-74
2023/08/08 08:34:38;;;;;;;2.20;1.50;;;;;;;23.60;64.01;98227.53;4136583;28;20655;-74
2023/08/08 08:36:41;;;;;;;2.83;1.47;;;;;;;23.54;65.12;98224.78;4156191;28;20637;-73
2023/08/08 08:38:46;;;;;;;2.03;1.50;;;;;;;23.52;65.23;98224.97;4142869;28;20703;-73
2023/08/08 08:40:50;;;;;;;1.70;1.30;;;;;;;23.42;64.99;98215.56;4144368;28;20724;-72
2023/08/08 08:42:53;;;;;;;1.70;1.07;;;;;;;23.32;66.25;98218.50;4147070;28;20635;-73
2023/08/08 08:44:58;;;;;;;2.13;1.13;;;;;;;23.26;64.05;98213.06;4144331;28;21144;-73
2023/08/08 08:47:03;;;;;;;1.97;1.40;;;;;;;23.19;64.41;98211.31;4149317;28;20712;-73
2023/08/08 08:49:08;;;;;;;3.07;1.70;;;;;;;23.15;64.99;98216.13;4158316;28;21206;-74
2023/08/08 08:51:13;;;;;;;2.27;1.40;;;;;;;23.09;65.92;98206.22;4156043;28;20662;-74
2023/08/08 08:53:18;;;;;;;2.00;1.47;;;;;;;23.01;65.26;98210.78;4160193;28;20643;-73
2023/08/08 08:55:21;;;;;;;3.57;1.67;;;;;;;22.97;66.01;98207.66;4150404;28;20639;-73
2023/08/08 08:57:24;;;;;;;2.40;1.57;;;;;;;23.01;65.60;98208.13;4120600;28;20693;-73
2023/08/08 08:59:28;;;;;;;2.43;1.50;;;;;;;23.02;66.95;98201.78;4153667;28;20645;-73
2023/08/08 09:01:31;;;;;;;2.17;1.40;;;;;;;23.00;66.96;98211.78;4154671;28;21190;-73
2023/08/08 09:03:35;;;;;;;2.33;1.50;;;;;;;22.92;66.49;98207.31;4144393;28;20667;-73
2023/08/08 09:05:40;;;;;;;2.00;1.40;;;;;;;22.84;66.76;98196.75;4144084;28;21064;-73
2023/08/08 09:07:44;;;;;;;2.00;1.40;;;;;;;22.73;67.65;98196.31;4136869;28;20628;-74
2023/08/08 09:09:47;;;;;;;2.50;1.70;;;;;;;22.63;67.69;98190.44;4151825;28;21192;-74
2023/08/08 09:11:53;;;;;;;2.20;1.50;;;;;;;22.59;66.92;98181.13;4137625;28;20627;-73
2023/08/08 09:13:56;;;;;;;1.90;1.30;;;;;;;22.51;67.70;98188.34;4156173;28;21198;-73
2023/08/08 09:16:00;;;;;;;2.30;1.50;;;;;;;22.65;66.92;98183.09;4153768;28;20693;-73
2023/08/08 09:18:03;;;;;;;2.10;1.30;;;;;;;22.73;66.92;98188.34;4142786;28;20643;-73
2023/08/08 09:20:09;;;;;;;2.43;1.20;;;;;;;22.68;65.61;98176.59;4127111;28;21009;-74
2023/08/08 09:22:18;;;;;;;1.70;1.10;;;;;;;22.83;65.74;98184.44;4156498;28;20650;-73
2023/08/08 09:24:23;;;;;;;1.67;1.30;;;;;;;22.89;66.72;98186.38;4150085;28;20667;-73
2023/08/08 09:26:29;;;;;;;2.43;1.10;;;;;;;22.82;64.08;98177.47;4135899;28;21349;-74
2023/08/08 09:28:32;;;;;;;2.60;1.47;;;;;;;22.74;63.77;98184.69;4137359;28;21186;-73
2023/08/08 09:30:36;;;;;;;2.70;1.40;;;;;;;22.61;63.00;98171.13;4155906;28;20654;-73
2023/08/08 09:32:39;;;;;;;2.80;1.57;;;;;;;22.52;62.92;98174.88;4138160;28;20626;-73
2023/08/08 09:34:43;;;;;;;2.37;1.53;;;;;;;22.59;64.44;98175.81;4158470;28;20664;-73
2023/08/08 09:36:46;;;;;;;3.40;1.30;;;;;;;22.74;65.06;98174.88;4153114;28;20626;-75
2023/08/08 09:38:49;;;;;;;2.00;1.40;;;;;;;22.90;66.70;98174.75;4136900;28;21010;-73